createdAt,value
2018-12-21T00:00:57.785Z,1.50
2018-12-21T00:03:27.072Z,1.53
2018-12-21T00:05:56.184Z,1.70
2018-12-21T00:08:25.325Z,1.35
2018-12-21T00:10:55.715Z,1.63
2018-12-21T00:13:24.929Z,1.65
2018-12-21T00:15:54.103Z,1.42
2018-12-21T00:18:23.279Z,1.37
2018-12-21T00:20:52.420Z,1.53
2018-12-21T00:26:03.293Z,1.70
2018-12-21T00:28:32.454Z,1.42
2018-12-21T00:31:06.974Z,1.23
2018-12-21T00:33:41.487Z,1.40
2018-12-21T00:36:15.818Z,1.30
2018-12-21T00:38:50.241Z,1.40
2018-12-21T00:41:18.665Z,1.57
2018-12-21T00:46:41.161Z,1.40
2018-12-21T00:51:50.744Z,1.50
2018-12-21T00:54:19.985Z,1.50
2018-12-21T00:56:49.187Z,1.62
2018-12-21T00:59:18.380Z,1.53
2018-12-21T01:01:47.642Z,1.15
2018-12-21T01:04:18.019Z,1.30
2018-12-21T01:06:47.336Z,1.10
2018-12-21T01:11:56.257Z,1.17
2018-12-21T01:14:25.535Z,1.27
2018-12-21T01:16:56.189Z,1.50
2018-12-21T01:22:05.573Z,1.10
2018-12-21T01:24:34.686Z,1.67
2018-12-21T01:27:03.876Z,1.23
2018-12-21T01:29:33.181Z,1.00
2018-12-21T01:32:02.349Z,1.00
2018-12-21T01:34:31.556Z,1.37
2018-12-21T01:39:40.045Z,1.00
2018-12-21T01:42:10.440Z,1.40
2018-12-21T01:44:40.411Z,0.93
2018-12-21T01:47:10.324Z,1.25
2018-12-21T01:49:40.364Z,1.30
2018-12-21T01:54:49.614Z,1.07
2018-12-21T01:57:18.802Z,1.13
2018-12-21T01:59:47.947Z,1.60
2018-12-21T02:02:18.170Z,1.17
2018-12-21T02:04:47.457Z,1.00
2018-12-21T02:07:17.320Z,1.07
2018-12-21T02:09:47.738Z,1.10
2018-12-21T02:12:18.173Z,1.10
2018-12-21T02:14:47.301Z,1.30
2018-12-21T02:17:16.534Z,1.33
2018-12-21T02:19:45.660Z,1.10
2018-12-21T02:22:14.992Z,1.30
2018-12-21T02:27:22.053Z,1.10
2018-12-21T02:29:51.263Z,1.10
2018-12-21T02:35:01.225Z,1.20
2018-12-21T02:40:09.817Z,1.20
2018-12-21T02:42:39.035Z,2.07
2018-12-21T02:45:09.154Z,2.20
2018-12-21T02:50:18.585Z,1.10
2018-12-21T02:52:47.954Z,1.30
2018-12-21T02:55:17.957Z,1.10
2018-12-21T02:57:47.112Z,1.23
2018-12-21T03:00:16.399Z,1.20
2018-12-21T03:02:45.681Z,1.00
2018-12-21T03:05:15.192Z,0.90
2018-12-21T03:07:44.489Z,1.30
2018-12-21T03:10:13.694Z,1.17
2018-12-21T03:12:42.856Z,1.13
2018-12-21T03:15:12.100Z,1.10
2018-12-21T03:17:41.499Z,1.10
2018-12-21T03:22:50.592Z,1.10
2018-12-21T03:25:19.896Z,0.80
2018-12-21T03:27:49.055Z,0.93
2018-12-21T03:30:19.147Z,1.37
2018-12-21T03:32:48.254Z,1.67
2018-12-21T03:35:18.058Z,0.95
2018-12-21T03:37:47.269Z,0.90
2018-12-21T03:40:16.732Z,1.12
2018-12-21T03:42:46.044Z,1.10
2018-12-21T03:47:54.519Z,1.20
2018-12-21T03:53:05.328Z,1.00
2018-12-21T03:55:34.466Z,1.20
2018-12-21T03:58:03.688Z,1.43
2018-12-21T04:00:32.915Z,1.20
2018-12-21T04:03:02.104Z,1.40
2018-12-21T04:05:31.401Z,1.10
2018-12-21T04:08:00.633Z,1.10
2018-12-21T04:10:29.834Z,1.57
2018-12-21T04:12:58.990Z,1.20
2018-12-21T04:15:28.149Z,0.90
2018-12-21T04:17:57.250Z,1.00
2018-12-21T04:20:26.438Z,1.10
2018-12-21T04:22:57.257Z,0.90
2018-12-21T04:25:26.711Z,1.37
2018-12-21T04:27:55.986Z,0.80
2018-12-21T04:30:25.194Z,1.27
2018-12-21T04:32:54.367Z,0.80
2018-12-21T04:35:23.583Z,0.80
2018-12-21T04:37:52.789Z,1.30
2018-12-21T04:40:22.099Z,1.20
2018-12-21T04:42:51.197Z,1.10
2018-12-21T04:45:20.353Z,1.33
2018-12-21T04:47:49.486Z,1.40
2018-12-21T04:52:57.825Z,0.90
2018-12-21T04:55:28.094Z,1.30
2018-12-21T04:57:57.340Z,1.00
2018-12-21T05:00:26.717Z,1.40
2018-12-21T05:02:55.895Z,0.80
2018-12-21T05:05:25.106Z,1.47
2018-12-21T05:07:54.183Z,1.30
2018-12-21T05:10:23.380Z,1.23
2018-12-21T05:12:52.669Z,1.22
2018-12-21T05:15:21.974Z,1.10
2018-12-21T05:17:51.158Z,1.20
2018-12-21T05:20:20.422Z,1.40
2018-12-21T05:22:52.415Z,1.30
2018-12-21T05:25:20.680Z,1.33
2018-12-21T05:27:50.951Z,1.12
2018-12-21T05:30:20.229Z,1.60
2018-12-21T05:32:49.354Z,1.20
2018-12-21T05:35:18.643Z,1.57
2018-12-21T05:37:47.831Z,2.12
2018-12-21T05:40:17.952Z,3.56
2018-12-21T05:42:47.228Z,2.50
2018-12-21T05:45:16.580Z,1.87
2018-12-21T05:47:45.859Z,1.70
2018-12-21T05:50:15.124Z,1.30
2018-12-21T05:52:44.380Z,1.57
2018-12-21T05:57:51.978Z,1.20
2018-12-21T06:00:21.237Z,1.33
2018-12-21T06:02:50.441Z,1.10
2018-12-21T06:05:19.795Z,1.27
2018-12-21T06:07:49.070Z,1.03
2018-12-21T06:12:56.927Z,1.20
2018-12-21T06:15:26.210Z,1.20
2018-12-21T06:17:55.427Z,1.20
2018-12-21T06:23:09.423Z,1.37
2018-12-21T06:25:35.011Z,1.17
2018-12-21T06:28:04.428Z,1.30
2018-12-21T06:30:34.845Z,1.50
2018-12-21T06:33:04.127Z,1.10
2018-12-21T06:35:35.515Z,1.03
2018-12-21T06:38:04.905Z,1.10
2018-12-21T06:40:33.953Z,1.20
2018-12-21T06:43:03.272Z,1.20
2018-12-21T06:45:32.841Z,1.50
2018-12-21T06:48:02.012Z,1.40
2018-12-21T06:53:17.721Z,1.30
2018-12-21T06:55:40.801Z,1.60
2018-12-21T06:58:09.962Z,1.60
2018-12-21T07:03:20.941Z,1.50
2018-12-21T07:08:31.281Z,1.20
2018-12-21T07:11:00.488Z,1.27
2018-12-21T07:13:29.744Z,1.67
2018-12-21T07:15:58.967Z,1.50
2018-12-21T07:18:28.922Z,1.10
2018-12-21T07:20:58.063Z,1.70
2018-12-21T07:23:27.603Z,1.40
2018-12-21T07:25:56.916Z,1.17
2018-12-21T07:28:27.196Z,1.65
2018-12-21T07:30:56.412Z,1.35
2018-12-21T07:33:25.692Z,2.37
2018-12-21T07:35:55.094Z,1.50
2018-12-21T07:38:25.658Z,1.30
2018-12-21T07:40:54.894Z,1.57
2018-12-21T07:43:24.052Z,1.45
2018-12-21T07:45:53.306Z,1.90
2018-12-21T07:51:00.749Z,1.93
2018-12-21T07:53:35.816Z,2.05
2018-12-21T07:56:01.025Z,2.05
2018-12-21T07:58:30.276Z,2.30
2018-12-21T08:00:59.615Z,1.70
2018-12-21T08:03:28.836Z,1.42
2018-12-21T08:05:58.040Z,2.20
2018-12-21T08:08:27.236Z,1.90
2018-12-21T08:10:57.977Z,2.30
2018-12-21T08:16:05.789Z,1.43
2018-12-21T08:18:35.198Z,1.35
2018-12-21T08:21:04.502Z,1.67
2018-12-21T08:23:33.665Z,1.70
2018-12-21T08:26:02.881Z,1.40
2018-12-21T08:28:32.115Z,1.97
2018-12-21T08:33:41.662Z,1.70
2018-12-21T08:36:10.876Z,1.40
2018-12-21T08:38:40.048Z,1.13
2018-12-21T08:41:10.433Z,1.60
2018-12-21T08:43:39.894Z,1.10
2018-12-21T08:46:09.153Z,1.67
2018-12-21T08:51:16.792Z,1.03
2018-12-21T08:53:52.475Z,1.45
2018-12-21T08:56:18.056Z,1.20
2018-12-21T08:58:48.732Z,1.50
2018-12-21T09:01:18.008Z,1.53
2018-12-21T09:03:47.096Z,1.10
2018-12-21T09:06:18.542Z,1.70
2018-12-21T09:08:47.662Z,1.30
2018-12-21T09:11:17.887Z,1.63
2018-12-21T09:13:48.144Z,1.33
2018-12-21T09:16:18.104Z,1.65
2018-12-21T09:18:47.358Z,1.60
2018-12-21T09:21:17.876Z,1.35
2018-12-21T09:23:48.926Z,1.67
2018-12-21T09:26:18.903Z,1.67
2018-12-21T09:28:48.104Z,1.12
2018-12-21T09:31:17.204Z,1.00
2018-12-21T09:33:47.202Z,1.45
2018-12-21T09:36:18.397Z,1.45
2018-12-21T09:38:47.562Z,1.43
2018-12-21T09:43:56.479Z,1.23
2018-12-21T09:46:25.738Z,0.82
2018-12-21T09:48:54.915Z,0.70
2018-12-21T09:54:09.690Z,0.80
2018-12-21T09:56:33.564Z,0.62
2018-12-21T09:59:02.856Z,0.80
2018-12-21T10:01:32.201Z,0.70
2018-12-21T10:04:01.501Z,0.70
2018-12-21T10:06:30.893Z,1.02
2018-12-21T10:09:00.090Z,0.65
2018-12-21T10:11:29.386Z,0.83
2018-12-21T10:13:58.564Z,0.70
2018-12-21T10:16:28.015Z,0.88
2018-12-21T10:18:57.263Z,1.00
2018-12-21T10:21:26.464Z,0.70
2018-12-21T10:23:55.656Z,0.80
2018-12-21T10:26:24.824Z,0.80
2018-12-21T10:28:54.129Z,0.60
2018-12-21T10:31:23.316Z,1.00
2018-12-21T10:33:52.537Z,1.00
2018-12-21T10:36:21.637Z,0.87
2018-12-21T10:38:50.812Z,1.03
2018-12-21T10:41:19.973Z,0.60
2018-12-21T10:43:49.274Z,1.00
2018-12-21T10:46:19.929Z,0.80
2018-12-21T10:48:49.097Z,0.97
2018-12-21T10:51:19.241Z,0.95
2018-12-21T10:56:26.980Z,0.70
2018-12-21T10:58:56.197Z,1.40
2018-12-21T11:04:04.807Z,1.10
2018-12-21T11:09:13.288Z,0.80
2018-12-21T11:11:43.024Z,1.80
2018-12-21T11:14:12.257Z,2.37
2018-12-21T11:16:41.418Z,1.05
2018-12-21T11:19:10.613Z,1.00
2018-12-21T11:21:39.949Z,1.37
2018-12-21T11:24:09.149Z,1.37
2018-12-21T11:26:38.349Z,1.23
2018-12-21T11:29:07.688Z,1.27
2018-12-21T11:31:36.888Z,0.90
2018-12-21T11:36:46.700Z,4.37
2018-12-21T11:39:15.906Z,2.27
2018-12-21T11:41:45.144Z,1.23
2018-12-21T11:44:14.346Z,1.00
2018-12-21T11:46:43.668Z,2.10
2018-12-21T11:49:12.905Z,2.10
2018-12-21T11:54:20.344Z,1.17
2018-12-21T11:56:49.562Z,1.27
2018-12-21T12:01:58.996Z,1.60
2018-12-21T12:04:28.185Z,2.00
2018-12-21T12:06:57.340Z,1.70
2018-12-21T12:09:26.640Z,2.77
2018-12-21T12:11:55.768Z,1.47
2018-12-21T12:14:25.776Z,1.30
2018-12-21T12:16:55.108Z,1.53
2018-12-21T12:19:24.180Z,1.47
2018-12-21T12:21:53.293Z,1.27
2018-12-21T12:24:22.664Z,1.77
2018-12-21T12:26:51.878Z,1.20
2018-12-21T12:29:21.107Z,1.10
2018-12-21T12:31:56.432Z,1.43
2018-12-21T12:34:25.535Z,1.20
2018-12-21T12:36:57.988Z,1.90
2018-12-21T12:39:27.104Z,2.80
2018-12-21T12:41:56.156Z,3.10
2018-12-21T12:44:30.998Z,2.97
2018-12-21T12:47:00.142Z,1.70
2018-12-21T12:49:29.353Z,1.50
2018-12-21T12:51:58.465Z,1.33
2018-12-21T12:54:27.520Z,1.40
2018-12-21T12:56:56.677Z,1.40
2018-12-21T12:59:25.696Z,1.50
2018-12-21T13:01:54.849Z,1.53
2018-12-21T13:07:03.267Z,1.20
2018-12-21T13:09:32.484Z,1.63
2018-12-21T13:12:01.556Z,1.40
2018-12-21T13:14:30.821Z,1.30
2018-12-21T13:16:59.992Z,1.70
2018-12-21T13:19:29.213Z,2.40
2018-12-21T13:21:58.469Z,1.63
2018-12-21T13:24:27.532Z,1.87
2018-12-21T13:26:56.711Z,1.67
2018-12-21T13:29:25.910Z,1.73
2018-12-21T13:31:55.037Z,1.50
2018-12-21T13:34:24.136Z,1.20
2018-12-21T13:36:53.372Z,1.80
2018-12-21T13:42:01.705Z,0.93
2018-12-21T13:44:30.755Z,0.93
2018-12-21T13:47:00.057Z,0.73
2018-12-21T13:49:29.220Z,1.15
2018-12-21T13:54:36.003Z,0.70
2018-12-21T13:57:05.256Z,0.63
2018-12-21T13:59:34.503Z,0.85
2018-12-21T14:02:03.759Z,0.70
2018-12-21T14:07:12.419Z,0.70
2018-12-21T14:09:41.483Z,0.60
2018-12-21T14:12:10.676Z,0.83
2018-12-21T14:14:39.911Z,0.60
2018-12-21T14:17:10.535Z,0.60
2018-12-21T14:19:40.922Z,0.50
2018-12-21T14:22:10.093Z,0.60
2018-12-21T14:24:39.180Z,0.57
2018-12-21T14:27:09.164Z,0.70
2018-12-21T14:29:38.954Z,0.68
2018-12-21T14:32:08.254Z,0.50
2018-12-21T14:34:37.352Z,0.70
2018-12-21T14:37:07.854Z,0.63
2018-12-21T14:39:36.953Z,0.70
2018-12-21T14:42:06.210Z,0.70
2018-12-21T14:44:35.362Z,0.63
2018-12-21T14:47:04.513Z,0.60
2018-12-21T14:52:14.976Z,0.63
2018-12-21T14:54:44.276Z,0.70
2018-12-21T14:57:13.446Z,0.60
2018-12-21T14:59:42.718Z,0.60
2018-12-21T15:02:11.923Z,0.50
2018-12-21T15:04:40.976Z,0.63
2018-12-21T15:07:10.226Z,0.77
2018-12-21T15:09:39.496Z,0.70
2018-12-21T15:12:08.708Z,0.57
2018-12-21T15:14:37.799Z,0.60
2018-12-21T15:19:46.075Z,0.80
2018-12-21T15:22:16.579Z,0.60
2018-12-21T15:24:45.727Z,0.50
2018-12-21T15:27:14.883Z,0.70
2018-12-21T15:29:44.051Z,0.60
2018-12-21T15:32:13.250Z,0.70
2018-12-21T15:34:42.506Z,0.67
2018-12-21T15:37:11.657Z,0.60
2018-12-21T15:39:40.817Z,0.60
2018-12-21T15:42:10.065Z,0.60
2018-12-21T15:44:39.152Z,0.65
2018-12-21T15:49:46.464Z,0.60
2018-12-21T15:52:15.625Z,0.70
2018-12-21T15:54:44.797Z,0.60
2018-12-21T15:57:14.231Z,0.70
2018-12-21T15:59:43.413Z,0.70
2018-12-21T16:02:12.887Z,0.70
2018-12-21T16:07:22.585Z,0.60
2018-12-21T16:09:52.606Z,0.80
2018-12-21T16:12:22.563Z,0.70
2018-12-21T16:14:52.762Z,0.57
2018-12-21T16:17:22.900Z,0.75
2018-12-21T16:19:52.777Z,0.70
2018-12-21T16:22:22.814Z,0.50
2018-12-21T16:24:52.909Z,0.50
2018-12-21T16:27:22.820Z,0.60
2018-12-21T16:29:52.999Z,0.57
2018-12-21T16:32:23.470Z,0.60
2018-12-21T16:34:53.642Z,0.70
2018-12-21T16:37:22.996Z,0.90
2018-12-21T16:39:53.013Z,0.65
2018-12-21T16:42:23.010Z,0.68
2018-12-21T16:44:53.076Z,0.65
2018-12-21T16:50:02.312Z,0.90
2018-12-21T16:52:32.697Z,0.80
2018-12-21T16:55:01.956Z,0.57
2018-12-21T16:57:31.088Z,0.70
2018-12-21T17:00:00.875Z,0.70
2018-12-21T17:02:30.021Z,0.73
2018-12-21T17:07:38.562Z,0.70
2018-12-21T17:10:24.356Z,0.70
2018-12-21T17:15:32.133Z,0.70
2018-12-21T17:18:02.140Z,0.60
2018-12-21T17:20:31.271Z,0.70
2018-12-21T17:23:00.853Z,0.70
2018-12-21T17:25:30.822Z,0.63
2018-12-21T17:27:59.955Z,0.87
2018-12-21T17:30:29.145Z,0.70
2018-12-21T17:32:58.414Z,0.60
2018-12-21T17:35:27.565Z,0.60
2018-12-21T17:37:56.689Z,0.77
2018-12-21T17:40:25.917Z,0.90
2018-12-21T17:42:55.087Z,0.70
2018-12-21T17:45:24.196Z,0.78
2018-12-21T17:47:54.082Z,0.78
2018-12-21T17:50:24.113Z,0.80
2018-12-21T17:52:54.180Z,0.72
2018-12-21T17:55:25.551Z,0.78
2018-12-21T17:57:54.864Z,0.77
2018-12-21T18:03:02.447Z,0.60
2018-12-21T18:05:31.710Z,0.60
2018-12-21T18:08:00.977Z,0.80
2018-12-21T18:10:30.327Z,0.70
2018-12-21T18:12:59.600Z,0.80
2018-12-21T18:15:28.721Z,0.70
2018-12-21T18:17:57.997Z,0.60
2018-12-21T18:20:27.265Z,0.63
2018-12-21T18:22:56.444Z,0.60
2018-12-21T18:25:28.993Z,0.70
2018-12-21T18:28:10.478Z,0.67
2018-12-21T18:30:40.900Z,0.70
2018-12-21T18:33:12.723Z,0.70
2018-12-21T18:35:42.021Z,0.70
2018-12-21T18:38:19.739Z,0.97
2018-12-21T18:40:49.012Z,1.73
2018-12-21T18:43:18.168Z,0.67
2018-12-21T18:45:47.409Z,0.70
2018-12-21T18:48:16.531Z,0.60
2018-12-21T18:53:23.956Z,0.90
2018-12-21T18:55:54.152Z,0.82
2018-12-21T18:58:23.608Z,0.70
2018-12-21T19:00:52.802Z,0.70
2018-12-21T19:03:22.029Z,0.60
2018-12-21T19:05:51.208Z,0.60
2018-12-21T19:08:20.424Z,0.70
2018-12-21T19:10:49.584Z,0.60
2018-12-21T19:13:18.759Z,0.60
2018-12-21T19:15:47.989Z,0.80
2018-12-21T19:18:18.036Z,0.70
2018-12-21T19:20:47.108Z,0.73
2018-12-21T19:23:17.518Z,0.80
2018-12-21T19:25:46.646Z,0.73
2018-12-21T19:28:15.847Z,0.70
2018-12-21T19:30:45.061Z,0.70
2018-12-21T19:33:14.240Z,0.70
2018-12-21T19:35:43.508Z,0.70
2018-12-21T19:38:13.023Z,0.80
2018-12-21T19:40:42.200Z,0.90
2018-12-21T19:43:11.420Z,0.80
2018-12-21T19:45:40.609Z,0.87
2018-12-21T19:48:09.756Z,1.20
2018-12-21T19:50:38.888Z,0.70
2018-12-21T19:53:08.038Z,0.87
2018-12-21T19:57:53.540Z,0.90
2018-12-21T20:00:22.631Z,1.05
2018-12-21T20:02:51.783Z,0.70
2018-12-21T20:05:20.966Z,0.70
2018-12-21T20:07:50.090Z,0.70
2018-12-21T20:10:19.260Z,0.80
2018-12-21T20:12:48.522Z,0.60
2018-12-21T20:17:58.383Z,0.70
2018-12-21T20:20:27.574Z,0.60
2018-12-21T20:22:56.758Z,0.70
2018-12-21T20:25:27.453Z,0.80
2018-12-21T20:27:56.684Z,0.70
2018-12-21T20:30:26.652Z,0.70
2018-12-21T20:32:56.979Z,0.60
2018-12-21T20:35:26.952Z,0.70
2018-12-21T20:37:57.068Z,0.80
2018-12-21T20:40:27.085Z,0.70
2018-12-21T20:42:56.918Z,0.68
2018-12-21T20:45:27.027Z,0.75
2018-12-21T20:50:35.204Z,0.70
2018-12-21T20:53:04.449Z,0.80
2018-12-21T20:58:27.618Z,0.77
2018-12-21T21:00:57.332Z,0.80
2018-12-21T21:03:27.430Z,1.00
2018-12-21T21:05:57.382Z,0.65
2018-12-21T21:08:27.287Z,0.82
2018-12-21T21:10:57.495Z,0.65
2018-12-21T21:13:27.364Z,0.76
2018-12-21T21:15:57.509Z,0.68
2018-12-21T21:18:28.647Z,0.86
2018-12-21T21:20:57.833Z,0.70
2018-12-21T21:23:27.521Z,0.60
2018-12-21T21:25:57.517Z,0.70
2018-12-21T21:28:27.842Z,0.70
2018-12-21T21:30:57.739Z,0.80
2018-12-21T21:33:27.829Z,0.64
2018-12-21T21:35:57.797Z,0.70
2018-12-21T21:38:28.483Z,0.70
2018-12-21T21:40:57.924Z,0.80
2018-12-21T21:43:28.006Z,0.60
2018-12-21T21:45:58.053Z,0.72
2018-12-21T21:48:28.113Z,0.66
2018-12-21T21:53:35.804Z,0.80
2018-12-21T21:56:05.088Z,0.70
2018-12-21T21:58:34.250Z,0.70
2018-12-21T22:01:03.540Z,0.60
2018-12-21T22:03:32.589Z,0.60
2018-12-21T22:06:01.889Z,0.60
2018-12-21T22:08:31.072Z,0.60
2018-12-21T22:11:01.979Z,0.77
2018-12-21T22:13:31.505Z,0.60
2018-12-21T22:16:00.764Z,0.60
2018-12-21T22:18:29.935Z,0.60
2018-12-21T22:20:59.178Z,0.60
2018-12-21T22:23:28.524Z,0.60
2018-12-21T22:25:58.582Z,0.70
2018-12-21T22:31:08.089Z,0.60
2018-12-21T22:33:37.426Z,0.55
2018-12-21T22:36:06.634Z,0.60
2018-12-21T22:38:35.862Z,0.60
2018-12-21T22:41:05.111Z,0.50
2018-12-21T22:43:34.210Z,0.70
2018-12-21T22:46:03.693Z,0.57
2018-12-21T22:48:32.870Z,0.57
2018-12-21T22:53:40.117Z,0.60
2018-12-21T22:56:09.257Z,0.60
2018-12-21T22:58:38.406Z,0.50
2018-12-21T23:01:08.219Z,0.50
2018-12-21T23:03:37.401Z,0.60
2018-12-21T23:06:06.668Z,0.50
2018-12-21T23:11:15.064Z,0.60
2018-12-21T23:13:44.339Z,0.50
2018-12-21T23:16:13.626Z,0.63
2018-12-21T23:18:42.945Z,0.60
2018-12-21T23:21:12.283Z,0.60
2018-12-21T23:23:41.420Z,0.50
2018-12-21T23:26:10.661Z,0.50
2018-12-21T23:28:39.832Z,0.70
2018-12-21T23:31:10.290Z,0.70
2018-12-21T23:33:39.377Z,0.60
2018-12-21T23:38:47.649Z,0.53
2018-12-21T23:41:17.938Z,0.60
2018-12-21T23:43:47.130Z,0.60
2018-12-21T23:46:16.297Z,0.60
2018-12-21T23:48:45.622Z,0.60
2018-12-21T23:51:14.834Z,0.60
2018-12-21T23:53:43.984Z,0.60
2018-12-21T23:58:51.743Z,0.50
